Kezdőlap
METAR-TAF:

METAR-TAF

Repülőterek :

Mikkeli, Finnország

földrajzi szélesség: 61-44N, földrajzi hosszúság: 027-18E, magasság: 138 m

Jelenlegi meteorológiai megfigyelések

A jelentés 34 perccel ezelõtt készült, 04:50 UTC
Dél-délnyugati szél 9 kt, délkeleti és nyugati között változik
Hőmérséklet 4°C
Páratartalom 93%
Légköri nyomás 972 hPa
Látótávolság 10 km, vagy több
Szakadozott felhőzet 1600 lábon

METAR: EFMI 090450Z AUTO 21009KT 140V270 9999 BKN016 04/03 Q0972

Idő: 07:24 (05:24 UTC)


TAF: hiányzik

Meteorológiai megfigyelések és előrejelzések több, mint 4000 repülőtéren (METAR és TAF jelentéseket).

A térképen piros és sárga pontok jelzik az elérhető meteorológiai állomásokat.

Mozgassa az egeret a pont fölött, hogy megjelenjen az állomás neve.

Azután kattintson az időjárási megfigyelések és előrejelzések megtekintéséhez.

A térkép megváltoztatása: kattintson a fekete keresztel jelölt zöld gombra ráközelítéshez, a vonallal jelölt zöld gombra távolításhoz, vagy a zöld nyilakra a szomszédos térképek eléréséhez.


METAR-TAF: